Time;durP1;ratioP1;P1;durP2;ratioP2;P2;SDS_P1;SDS_P2;PMS_P1;PMS_P2;Temp;Humidity;BMP_temperature;BMP_pressure;BME280_temperature;BME280_humidity;BME280_pressure;Samples;Min_cycle;Max_cycle;Signal;HPM_P1;HPM_P2
2021/03/03 00:01:49;;;;;;;30.23;21.20;;;;;;;6.93;66.40;102717.44;5077918;28;20251;-69
2021/03/03 00:04:14;;;;;;;26.20;20.50;;;;;;;6.74;66.42;102711.22;5078501;28;20192;-71
2021/03/03 00:06:39;;;;;;;27.60;20.70;;;;;;;6.52;67.50;102719.44;5078319;28;20535;-70
2021/03/03 00:09:05;;;;;;;27.77;20.47;;;;;;;6.80;66.60;102710.66;5078018;28;20456;-71
2021/03/03 00:11:30;;;;;;;30.60;21.67;;;;;;;6.96;66.04;102708.13;5078298;28;20215;-71
2021/03/03 00:13:55;;;;;;;27.33;19.60;;;;;;;6.56;68.12;102704.19;5077802;28;20254;-71
2021/03/03 00:16:21;;;;;;;29.27;20.77;;;;;;;6.99;66.48;102704.81;5078068;28;20429;-72
2021/03/03 00:18:46;;;;;;;29.00;20.27;;;;;;;6.62;67.05;102700.16;5078683;28;20164;-71
2021/03/03 00:21:12;;;;;;;31.30;22.40;;;;;;;6.80;67.16;102702.91;5077977;28;20191;-72
2021/03/03 00:23:37;;;;;;;33.37;23.80;;;;;;;6.89;66.72;102704.31;5077992;28;20185;-73
2021/03/03 00:26:02;;;;;;;30.47;21.83;;;;;;;6.56;67.76;102705.84;5077856;28;20225;-72
2021/03/03 00:28:27;;;;;;;33.20;23.53;;;;;;;6.28;68.78;102699.09;5077879;28;20192;-74
2021/03/03 00:30:53;;;;;;;33.93;24.00;;;;;;;6.67;67.82;102699.63;5078107;28;20173;-72
2021/03/03 00:33:18;;;;;;;36.00;23.03;;;;;;;6.70;67.74;102701.47;5077862;28;20218;-72
2021/03/03 00:35:43;;;;;;;35.87;24.23;;;;;;;6.69;67.86;102697.97;5077782;28;20222;-74
2021/03/03 00:38:09;;;;;;;30.90;22.67;;;;;;;6.70;67.90;102698.91;5078330;28;20278;-71
2021/03/03 00:40:34;;;;;;;32.17;22.90;;;;;;;6.78;67.21;102696.72;5077764;28;20226;-72
2021/03/03 00:42:59;;;;;;;33.17;23.03;;;;;;;6.68;67.56;102696.19;5077659;28;20177;-72
2021/03/03 00:45:25;;;;;;;33.30;23.33;;;;;;;6.62;67.83;102703.63;5078102;28;20165;-72
2021/03/03 00:47:50;;;;;;;33.70;22.63;;;;;;;6.69;67.93;102697.97;5077757;28;20283;-72
2021/03/03 00:50:16;;;;;;;36.80;25.43;;;;;;;6.74;67.36;102691.38;5076880;28;20678;-72
2021/03/03 00:52:41;;;;;;;32.53;23.03;;;;;;;6.67;67.88;102684.06;5077870;28;20204;-73
2021/03/03 00:55:07;;;;;;;36.67;25.20;;;;;;;6.78;67.95;102684.66;5077573;28;20177;-73
2021/03/03 00:57:32;;;;;;;31.60;23.00;;;;;;;6.84;66.96;102681.53;5077598;28;20173;-71
2021/03/03 00:59:57;;;;;;;30.33;22.70;;;;;;;6.67;67.79;102680.56;5077958;28;20210;-72
2021/03/03 01:02:23;;;;;;;32.73;23.50;;;;;;;6.37;68.80;102681.50;5077363;28;20169;-72
2021/03/03 01:04:48;;;;;;;35.20;23.50;;;;;;;6.33;68.76;102682.13;5078874;28;20208;-72
2021/03/03 01:07:13;;;;;;;34.93;24.93;;;;;;;6.68;68.27;102680.63;5081523;28;20211;-71
2021/03/03 01:09:39;;;;;;;34.93;23.93;;;;;;;6.42;68.74;102676.56;5081040;28;20439;-70
2021/03/03 01:12:04;;;;;;;33.47;23.07;;;;;;;6.58;67.52;102673.16;5080822;28;20184;-71
2021/03/03 01:14:29;;;;;;;34.70;24.00;;;;;;;6.60;68.07;102671.53;5081388;28;20176;-71
2021/03/03 01:16:55;;;;;;;38.47;25.60;;;;;;;6.57;68.40;102666.19;5080883;28;20172;-70
2021/03/03 01:19:20;;;;;;;32.17;23.43;;;;;;;6.57;67.85;102663.59;5081223;28;20168;-71
2021/03/03 01:21:46;;;;;;;35.43;24.40;;;;;;;6.57;68.01;102655.81;5081353;28;20203;-72
2021/03/03 01:24:13;;;;;;;36.77;23.50;;;;;;;6.53;68.29;102656.44;5081019;28;20249;-71
2021/03/03 01:26:38;;;;;;;39.20;26.03;;;;;;;6.45;68.15;102653.41;5086212;28;20515;-70
2021/03/03 01:29:04;;;;;;;37.83;24.10;;;;;;;6.33;68.71;102661.41;5084680;28;20449;-69
2021/03/03 01:31:29;;;;;;;36.27;24.07;;;;;;;6.32;68.84;102649.25;5080781;28;20260;-68
2021/03/03 01:33:54;;;;;;;35.97;23.60;;;;;;;6.35;68.92;102646.81;5080576;28;20254;-70
2021/03/03 01:36:20;;;;;;;34.97;23.70;;;;;;;6.29;69.03;102642.97;5081213;28;20177;-69
2021/03/03 01:38:45;;;;;;;39.03;24.20;;;;;;;6.07;69.49;102645.22;5080826;28;20184;-71
2021/03/03 01:41:10;;;;;;;35.40;24.67;;;;;;;6.15;69.23;102634.41;5080561;28;20183;-70
2021/03/03 01:43:36;;;;;;;33.40;22.47;;;;;;;5.89;70.21;102646.69;5081271;28;20157;-70
2021/03/03 01:46:01;;;;;;;34.67;24.17;;;;;;;6.10;69.11;102635.84;5080597;28;20567;-69
2021/03/03 01:48:26;;;;;;;39.37;26.23;;;;;;;6.19;69.46;102629.50;5080393;28;20441;-72
2021/03/03 01:50:52;;;;;;;34.93;23.90;;;;;;;6.06;69.40;102634.75;5080813;28;20210;-71
2021/03/03 01:53:18;;;;;;;36.47;23.90;;;;;;;6.07;69.65;102627.09;5080259;28;20205;-70
2021/03/03 01:55:43;;;;;;;34.43;24.10;;;;;;;6.07;69.47;102627.09;5083625;28;20173;-71
2021/03/03 01:58:09;;;;;;;36.10;25.10;;;;;;;5.95;69.99;102620.25;5080597;28;20184;-70
2021/03/03 02:00:34;;;;;;;33.33;23.37;;;;;;;6.02;69.07;102617.25;5080102;28;20172;-71
2021/03/03 02:03:00;;;;;;;35.97;24.33;;;;;;;6.12;69.40;102604.06;5080195;28;20508;-70
2021/03/03 02:05:25;;;;;;;37.40;24.37;;;;;;;6.09;69.44;102600.38;5080384;28;20256;-71
2021/03/03 02:08:07;;;;;;;37.70;24.73;;;;;;;6.07;69.44;102602.88;5079245;28;20503;-71
2021/03/03 02:10:47;;;;;;;40.13;24.80;;;;;;;5.87;69.98;102601.69;5079166;28;20204;-70
2021/03/03 02:13:26;;;;;;;37.73;25.83;;;;;;;5.91;69.97;102603.66;5079497;28;20955;-72
2021/03/03 02:15:52;;;;;;;40.50;25.13;;;;;;;6.04;69.21;102588.06;5078504;28;20426;-70
2021/03/03 02:18:18;;;;;;;24.03;18.23;;;;;;;10.97;67.50;102574.22;5079636;28;20684;-66
2021/03/03 02:20:53;;;;;;;27.73;18.17;;;;;;;12.85;61.54;102563.09;5078968;28;20282;-67
2021/03/03 02:23:33;;;;;;;25.90;20.30;;;;;;;8.67;58.24;102573.22;5080137;28;20496;-70
2021/03/03 02:25:59;;;;;;;26.37;21.03;;;;;;;6.93;64.73;102574.81;5090346;28;20470;-72
2021/03/03 02:28:24;;;;;;;28.60;20.77;;;;;;;5.92;68.51;102563.13;5091766;28;20427;-72
2021/03/03 02:30:50;;;;;;;29.17;21.57;;;;;;;5.86;69.47;102558.50;5094196;28;20252;-72
2021/03/03 02:33:17;;;;;;;31.97;23.10;;;;;;;5.59;69.79;102561.25;5090917;28;20203;-70
2021/03/03 02:35:45;;;;;;;32.33;21.80;;;;;;;5.77;69.97;102573.50;5080818;28;20168;-74
2021/03/03 02:38:10;;;;;;;30.37;21.43;;;;;;;5.62;70.51;102563.13;5081127;28;20421;-72
2021/03/03 02:40:36;;;;;;;34.83;22.60;;;;;;;5.48;70.77;102559.69;5080035;28;20395;-73
2021/03/03 02:43:01;;;;;;;32.00;22.50;;;;;;;5.42;70.37;102554.19;5079868;28;20173;-73
2021/03/03 02:45:28;;;;;;;34.30;22.97;;;;;;;5.13;72.08;102548.09;5079111;28;20161;-73
2021/03/03 02:47:53;;;;;;;36.20;23.77;;;;;;;5.54;71.07;102541.97;5082155;28;20165;-73
2021/03/03 02:50:18;;;;;;;36.87;24.47;;;;;;;5.31;70.95;102541.47;5092229;28;20635;-72
2021/03/03 02:52:56;;;;;;;37.43;24.83;;;;;;;5.30;72.04;102539.69;5089319;28;20204;-74
2021/03/03 02:55:24;;;;;;;39.23;24.40;;;;;;;5.07;71.50;102543.47;5084133;28;20172;-72
2021/03/03 02:57:49;;;;;;;41.60;24.87;;;;;;;4.87;73.25;102539.66;5080174;28;20673;-72
2021/03/03 03:00:17;;;;;;;37.43;25.20;;;;;;;5.24;71.63;102539.34;5079459;28;20400;-72
2021/03/03 03:02:45;;;;;;;39.73;25.90;;;;;;;5.12;72.19;102547.22;5078602;28;20165;-72
2021/03/03 03:05:12;;;;;;;41.77;25.90;;;;;;;5.33;71.71;102533.81;5078490;28;20433;-72
2021/03/03 03:07:40;;;;;;;39.43;25.67;;;;;;;5.02;71.77;102542.28;5078795;28;20438;-73
2021/03/03 03:10:09;;;;;;;42.10;27.30;;;;;;;5.09;71.80;102525.47;5078205;28;20411;-71
2021/03/03 03:12:36;;;;;;;41.00;26.03;;;;;;;5.34;70.67;102520.97;5078840;28;20788;-71
2021/03/03 03:15:02;;;;;;;44.60;26.77;;;;;;;5.20;71.60;102524.44;5078448;28;20414;-70
2021/03/03 03:17:27;;;;;;;41.67;24.37;;;;;;;4.98;73.22;102525.72;5078692;28;20815;-72
2021/03/03 03:19:54;;;;;;;44.23;23.80;;;;;;;4.65;72.94;102520.22;5078843;28;20411;-71
2021/03/03 03:22:21;;;;;;;97.13;28.33;;;;;;;4.00;74.26;102526.44;5078314;28;20256;-71
2021/03/03 03:24:47;;;;;;;61.43;28.43;;;;;;;4.41;73.65;102531.59;5077935;28;20411;-72
2021/03/03 03:27:12;;;;;;;101.63;32.93;;;;;;;4.95;72.39;102524.63;5078835;28;20461;-72
2021/03/03 03:29:39;;;;;;;173.10;32.80;;;;;;;3.83;74.09;102520.19;5079403;28;20196;-71
2021/03/03 03:32:05;;;;;;;107.07;31.80;;;;;;;4.29;74.38;102522.28;5078030;28;20179;-73
2021/03/03 03:34:30;;;;;;;161.87;32.70;;;;;;;4.44;72.91;102513.72;5077805;28;20423;-72
2021/03/03 03:36:56;;;;;;;160.83;34.60;;;;;;;4.28;73.88;102515.31;5078253;28;20212;-72
2021/03/03 03:39:22;;;;;;;154.30;35.43;;;;;;;4.48;73.37;102520.84;5078466;28;20187;-72
2021/03/03 03:41:47;;;;;;;92.13;34.83;;;;;;;4.93;71.38;102511.63;5078412;28;20411;-72
2021/03/03 03:44:13;;;;;;;92.70;36.03;;;;;;;5.21;69.94;102502.97;5078820;28;20162;-72
2021/03/03 03:46:40;;;;;;;166.77;41.27;;;;;;;4.20;73.22;102507.09;5078369;28;20172;-71
2021/03/03 03:49:05;;;;;;;132.40;38.73;;;;;;;4.44;72.89;102500.78;5078261;28;20161;-71
2021/03/03 03:51:31;;;;;;;113.57;39.10;;;;;;;4.74;72.36;102511.28;5078035;28;20415;-72
2021/03/03 03:53:56;;;;;;;170.43;42.80;;;;;;;4.87;71.95;102513.81;5078278;28;20222;-72
2021/03/03 03:56:22;;;;;;;192.57;42.63;;;;;;;5.22;70.88;102507.31;5077628;28;20260;-71
2021/03/03 03:58:47;;;;;;;232.50;44.30;;;;;;;4.96;71.03;102521.25;5078874;28;20180;-72
2021/03/03 04:01:12;;;;;;;178.60;43.20;;;;;;;4.58;73.20;102520.66;5078090;28;20218;-73
2021/03/03 04:03:38;;;;;;;251.30;41.40;;;;;;;4.90;72.20;102521.78;5077735;28;20177;-73
2021/03/03 04:06:03;;;;;;;235.03;44.77;;;;;;;4.76;71.45;102522.59;5078590;28;20165;-73
2021/03/03 04:08:29;;;;;;;361.47;45.30;;;;;;;4.59;72.46;102517.28;5078325;28;20185;-72
2021/03/03 04:10:55;;;;;;;225.87;38.67;;;;;;;4.63;72.13;102520.97;5078001;28;20534;-73
2021/03/03 04:13:20;;;;;;;229.47;41.00;;;;;;;4.59;72.97;102512.09;5078691;28;20208;-73
2021/03/03 04:15:45;;;;;;;226.57;39.30;;;;;;;4.66;72.62;102513.38;5078186;28;20180;-72
2021/03/03 04:18:11;;;;;;;183.97;38.43;;;;;;;4.62;71.72;102512.28;5078094;28;20200;-72
2021/03/03 04:20:37;;;;;;;225.30;40.50;;;;;;;4.18;72.89;102515.53;5078225;28;20161;-73
2021/03/03 04:23:03;;;;;;;222.20;37.07;;;;;;;4.49;71.82;102497.72;5078224;28;20724;-73
2021/03/03 04:25:28;;;;;;;210.10;38.43;;;;;;;4.71;71.06;102514.56;5077722;28;20291;-72
2021/03/03 04:27:53;;;;;;;217.93;40.30;;;;;;;4.41;72.37;102516.09;5078540;28;20165;-72
2021/03/03 04:30:19;;;;;;;297.90;43.60;;;;;;;4.52;72.08;102525.44;5077809;28;20266;-72
2021/03/03 04:32:45;;;;;;;229.27;39.40;;;;;;;4.81;71.39;102521.19;5077577;28;20197;-72
2021/03/03 04:35:11;;;;;;;165.43;38.33;;;;;;;4.67;71.68;102528.97;5078467;28;20535;-72
2021/03/03 04:37:37;;;;;;;212.90;35.97;;;;;;;4.78;71.96;102528.78;5077688;28;20197;-72
2021/03/03 04:40:05;;;;;;;248.47;40.40;;;;;;;4.48;72.66;102526.94;5079463;28;20855;-71
2021/03/03 04:42:31;;;;;;;328.50;43.53;;;;;;;4.32;71.45;102529.34;5082834;28;20789;-72
2021/03/03 04:44:56;;;;;;;193.27;36.07;;;;;;;4.32;72.27;102525.06;5081575;28;20510;-71
2021/03/03 04:47:22;;;;;;;202.17;40.60;;;;;;;4.29;71.58;102527.44;5081663;28;20192;-72
2021/03/03 04:49:47;;;;;;;195.67;36.57;;;;;;;4.41;70.72;102523.84;5081925;28;20161;-72
2021/03/03 04:52:12;;;;;;;169.57;35.17;;;;;;;3.91;71.88;102519.78;5081456;28;20215;-71
2021/03/03 04:54:37;;;;;;;130.33;31.57;;;;;;;4.11;71.54;102509.06;5081630;28;20164;-72
2021/03/03 04:57:04;;;;;;;132.03;32.10;;;;;;;4.15;72.05;102511.06;5081974;28;20176;-73
2021/03/03 04:59:29;;;;;;;219.77;33.87;;;;;;;3.95;72.25;102514.03;5081288;28;20173;-73
2021/03/03 05:01:55;;;;;;;316.17;36.97;;;;;;;4.21;71.24;102520.91;5081175;28;20415;-71
2021/03/03 05:04:20;;;;;;;107.57;31.57;;;;;;;3.96;72.25;102514.13;5081761;28;20161;-72
2021/03/03 05:06:45;;;;;;;169.33;33.10;;;;;;;4.05;72.02;102514.72;5081112;28;20169;-72
2021/03/03 05:09:10;;;;;;;147.03;32.50;;;;;;;4.02;71.46;102508.50;5081003;28;20570;-71
2021/03/03 05:11:36;;;;;;;237.90;33.90;;;;;;;3.15;74.60;102517.31;5081756;28;20251;-72
2021/03/03 05:14:01;;;;;;;196.57;36.17;;;;;;;3.34;74.34;102504.91;5081206;28;20205;-71
2021/03/03 05:16:26;;;;;;;296.90;36.80;;;;;;;4.01;71.87;102502.44;5080996;28;20180;-72
2021/03/03 05:18:52;;;;;;;181.57;35.40;;;;;;;4.18;71.66;102512.94;5081662;28;20173;-71
2021/03/03 05:21:17;;;;;;;116.50;32.37;;;;;;;4.15;70.99;102507.59;5080866;28;20176;-72
2021/03/03 05:23:42;;;;;;;228.63;35.17;;;;;;;4.09;70.66;102502.06;5080879;28;20180;-72
2021/03/03 05:26:07;;;;;;;144.17;35.03;;;;;;;3.88;72.29;102474.94;5080800;28;20232;-71
2021/03/03 05:28:33;;;;;;;168.30;34.83;;;;;;;4.00;71.73;102487.72;5081015;28;20173;-71
2021/03/03 05:30:59;;;;;;;149.70;34.80;;;;;;;3.92;71.31;102483.75;5081153;28;20185;-70
2021/03/03 05:33:29;;;;;;;104.90;32.27;;;;;;;4.39;71.08;102483.31;5081120;28;20824;-72
2021/03/03 05:35:57;;;;;;;185.60;34.07;;;;;;;3.46;72.86;102489.34;5080733;28;20173;-71
2021/03/03 05:38:23;;;;;;;99.00;30.60;;;;;;;3.98;73.14;102491.91;5081170;28;20399;-71
2021/03/03 05:40:50;;;;;;;137.07;33.10;;;;;;;3.93;72.03;102485.56;5080407;28;20407;-72
2021/03/03 05:43:15;;;;;;;233.90;33.00;;;;;;;3.69;72.16;102480.59;5080453;28;20517;-72
2021/03/03 05:45:41;;;;;;;187.77;33.37;;;;;;;3.69;72.87;102472.84;5080948;28;20423;-75
2021/03/03 05:48:12;;;;;;;253.37;36.00;;;;;;;3.93;72.04;102477.81;5080537;28;20696;-72
2021/03/03 05:50:38;;;;;;;139.07;33.00;;;;;;;3.98;71.65;102484.16;5078818;28;20414;-73
2021/03/03 05:53:04;;;;;;;139.10;34.07;;;;;;;3.96;71.75;102479.69;5079634;28;20455;-73
2021/03/03 05:55:30;;;;;;;219.57;38.70;;;;;;;3.69;72.44;102480.59;5080369;28;20469;-73
2021/03/03 05:57:55;;;;;;;269.07;39.43;;;;;;;3.95;71.59;102483.06;5080251;28;20172;-73
2021/03/03 06:00:21;;;;;;;165.33;33.90;;;;;;;4.14;70.55;102487.72;5080865;28;20175;-73
2021/03/03 06:02:47;;;;;;;165.73;37.10;;;;;;;4.18;70.75;102476.81;5079389;28;20182;-73
2021/03/03 06:05:12;;;;;;;108.43;33.70;;;;;;;4.11;71.92;102472.06;5080303;28;20484;-73
2021/03/03 06:07:38;;;;;;;225.70;38.50;;;;;;;4.09;70.85;102473.66;5080769;28;20188;-71
2021/03/03 06:10:06;;;;;;;140.07;35.87;;;;;;;4.25;70.88;102466.09;5079343;28;20336;-72
2021/03/03 06:12:31;;;;;;;146.90;36.03;;;;;;;4.28;70.84;102467.97;5079781;28;20236;-72
2021/03/03 06:14:57;;;;;;;143.83;37.27;;;;;;;4.24;70.79;102474.63;5080002;28;20665;-72
2021/03/03 06:17:22;;;;;;;186.30;38.33;;;;;;;4.50;70.55;102465.91;5080015;28;20204;-72
2021/03/03 06:19:47;;;;;;;119.47;33.93;;;;;;;4.31;71.68;102468.16;5079844;28;20256;-72
2021/03/03 06:22:26;;;;;;;115.33;33.50;;;;;;;4.20;71.32;102462.31;5079437;28;20172;-72
2021/03/03 06:24:54;;;;;;;204.30;37.07;;;;;;;3.89;71.18;102462.94;5079628;28;20197;-72
2021/03/03 06:27:22;;;;;;;134.83;34.30;;;;;;;4.40;69.68;102461.00;5079703;28;20785;-71
2021/03/03 06:30:05;;;;;;;100.67;34.47;;;;;;;4.35;69.96;102462.38;5079656;28;20835;-73
2021/03/03 06:32:31;;;;;;;139.70;33.10;;;;;;;4.24;70.77;102461.72;5079512;28;20486;-72
2021/03/03 06:34:56;;;;;;;229.67;35.70;;;;;;;4.07;70.49;102462.31;5079552;28;20470;-73
2021/03/03 06:37:21;;;;;;;155.50;32.00;;;;;;;4.13;71.10;102460.16;5079339;28;20177;-71
2021/03/03 06:40:06;;;;;;;205.40;33.00;;;;;;;4.27;69.87;102459.31;5079852;28;20180;-71
2021/03/03 06:42:31;;;;;;;231.83;35.23;;;;;;;4.36;69.69;102457.31;5079344;28;20187;-71
2021/03/03 06:44:57;;;;;;;155.83;33.20;;;;;;;4.31;69.25;102453.56;5078745;28;20407;-70
2021/03/03 06:47:23;;;;;;;209.87;32.63;;;;;;;4.43;69.46;102452.56;5079382;28;20219;-71
2021/03/03 06:49:50;;;;;;;176.07;31.50;;;;;;;4.28;69.57;102445.63;5079395;28;20493;-71
2021/03/03 06:52:15;;;;;;;138.43;31.60;;;;;;;4.21;68.80;102446.03;5079207;28;20649;-71
2021/03/03 06:54:40;;;;;;;143.17;32.07;;;;;;;4.09;69.06;102450.44;5078856;28;20526;-71
2021/03/03 06:57:08;;;;;;;129.80;34.03;;;;;;;4.19;69.51;102439.88;5079173;28;20527;-71
2021/03/03 06:59:36;;;;;;;169.17;33.73;;;;;;;4.41;68.45;102436.06;5079588;28;20165;-71
2021/03/03 07:02:08;;;;;;;131.57;34.37;;;;;;;4.38;68.17;102437.66;5078509;28;20445;-73
2021/03/03 07:04:38;;;;;;;103.27;32.50;;;;;;;4.56;68.23;102431.84;5078937;28;20418;-71
2021/03/03 07:07:12;;;;;;;95.57;29.70;;;;;;;4.61;67.56;102433.00;5078886;28;20805;-70
2021/03/03 07:09:39;;;;;;;82.90;30.80;;;;;;;4.72;66.13;102434.56;5078819;28;20419;-70
2021/03/03 07:12:07;;;;;;;97.97;28.80;;;;;;;4.53;66.65;102442.88;5078805;28;20407;-71
2021/03/03 07:14:32;;;;;;;100.40;29.20;;;;;;;4.11;67.54;102441.09;5079098;28;20510;-70
2021/03/03 07:17:08;;;;;;;95.53;31.53;;;;;;;4.57;66.86;102454.28;5079802;28;20524;-72
2021/03/03 07:19:38;;;;;;;94.63;30.77;;;;;;;4.95;65.51;102449.66;5078732;28;20172;-71
2021/03/03 07:22:07;;;;;;;99.10;33.40;;;;;;;4.58;66.68;102448.31;5076930;28;20832;-70
2021/03/03 07:24:33;;;;;;;75.83;30.10;;;;;;;4.64;66.33;102438.38;5078488;28;20789;-71
2021/03/03 07:26:58;;;;;;;64.17;30.03;;;;;;;5.13;64.65;102430.09;5077657;28;20451;-71
2021/03/03 07:29:25;;;;;;;71.53;30.40;;;;;;;4.94;64.70;102438.44;5078201;28;20530;-71
2021/03/03 07:31:50;;;;;;;73.30;30.97;;;;;;;5.21;64.37;102443.50;5078856;28;20185;-70
2021/03/03 07:34:16;;;;;;;57.97;31.17;;;;;;;5.53;63.85;102447.03;5078010;28;20467;-73
2021/03/03 07:36:47;;;;;;;55.40;29.20;;;;;;;6.52;60.17;102437.00;5078862;28;20176;-71
2021/03/03 07:39:13;;;;;;;43.93;26.23;;;;;;;6.58;58.91;102432.16;5078568;28;20690;-71
2021/03/03 07:41:43;;;;;;;43.03;28.23;;;;;;;8.45;54.12;102419.69;5078492;28;20408;-71
2021/03/03 07:44:10;;;;;;;35.87;23.33;;;;;;;9.72;49.14;102418.16;5078360;28;20252;-71
2021/03/03 07:46:38;;;;;;;27.20;20.27;;;;;;;10.09;49.01;102417.91;5078237;28;20415;-72
2021/03/03 07:49:03;;;;;;;30.53;22.27;;;;;;;10.56;46.81;102407.50;5078624;28;20425;-68
2021/03/03 07:51:28;;;;;;;28.63;20.43;;;;;;;10.93;45.74;102394.88;5077317;28;20791;-69
2021/03/03 07:53:55;;;;;;;26.40;19.97;;;;;;;10.58;45.85;102391.91;5077190;28;20476;-71
2021/03/03 07:56:20;;;;;;;28.57;20.90;;;;;;;11.03;45.83;102391.78;5078210;28;20192;-71
2021/03/03 07:58:46;;;;;;;23.17;19.23;;;;;;;11.80;43.23;102388.19;5077296;28;20426;-71
2021/03/03 08:01:12;;;;;;;22.07;19.83;;;;;;;12.26;42.15;102386.97;5077821;28;20543;-70
2021/03/03 08:03:47;;;;;;;20.93;17.90;;;;;;;12.34;41.89;102375.84;5078837;28;20260;-71
2021/03/03 08:06:23;;;;;;;18.97;16.97;;;;;;;11.95;42.41;102382.56;5078178;28;20592;-70
2021/03/03 08:09:07;;;;;;;22.33;18.83;;;;;;;12.22;42.09;102373.78;5077897;28;20425;-70
2021/03/03 08:11:34;;;;;;;20.50;18.50;;;;;;;12.32;41.42;102378.41;5077996;28;20378;-70
2021/03/03 08:14:00;;;;;;;18.87;16.93;;;;;;;11.86;43.09;102372.66;5078220;28;20483;-69
2021/03/03 08:16:25;;;;;;;24.30;18.57;;;;;;;12.04;42.17;102377.63;5081329;28;20397;-71
2021/03/03 08:18:56;;;;;;;21.07;18.83;;;;;;;12.23;43.02;102384.28;5081574;28;20476;-72
2021/03/03 08:21:21;;;;;;;22.60;19.53;;;;;;;12.87;41.84;102378.19;5081834;28;20165;-71
2021/03/03 08:23:48;;;;;;;21.30;19.03;;;;;;;13.14;41.09;102378.00;5082040;28;20779;-74
2021/03/03 08:26:16;;;;;;;20.03;17.83;;;;;;;13.30;39.91;102369.69;5081866;28;20227;-73
2021/03/03 08:28:46;;;;;;;20.43;17.73;;;;;;;13.39;40.00;102369.03;5082080;28;20467;-72
2021/03/03 08:31:14;;;;;;;21.67;17.80;;;;;;;13.81;38.62;102363.06;5081643;28;20415;-71
2021/03/03 08:33:54;;;;;;;20.57;18.17;;;;;;;14.26;38.00;102360.47;5081966;28;20434;-74
2021/03/03 08:36:29;;;;;;;19.47;17.53;;;;;;;14.38;37.29;102355.47;5090409;28;20463;-73
2021/03/03 08:38:54;;;;;;;22.17;17.83;;;;;;;13.45;39.26;102358.72;5082031;28;20385;-72
2021/03/03 08:41:23;;;;;;;19.13;17.23;;;;;;;13.12;39.98;102357.03;5081626;28;20477;-72
2021/03/03 08:44:14;;;;;;;18.63;16.83;;;;;;;13.58;39.06;102351.16;5081353;28;20165;-74
2021/03/03 08:46:45;;;;;;;18.50;16.70;;;;;;;13.59;38.61;102345.06;5081465;28;20418;-73
2021/03/03 08:49:25;;;;;;;19.70;17.80;;;;;;;13.87;38.90;102345.66;5081449;28;20553;-73
2021/03/03 08:52:06;;;;;;;20.77;16.30;;;;;;;14.40;38.31;102331.91;5081377;28;20418;-73
2021/03/03 08:54:49;;;;;;;20.17;17.23;;;;;;;14.39;37.98;102336.25;5079992;28;20474;-74
2021/03/03 08:57:31;;;;;;;18.40;16.53;;;;;;;13.79;38.79;102328.03;5074236;28;20402;-73
2021/03/03 08:59:57;;;;;;;18.10;16.50;;;;;;;13.70;39.36;102330.44;5081011;28;20414;-74
2021/03/03 09:02:26;;;;;;;19.83;17.97;;;;;;;14.39;38.43;102338.88;5083433;28;20410;-73
2021/03/03 09:04:52;;;;;;;18.30;16.33;;;;;;;14.74;37.97;102327.31;5084817;28;20202;-72
2021/03/03 09:07:24;;;;;;;18.40;16.50;;;;;;;14.14;38.54;102337.53;5086505;28;20868;-72
2021/03/03 09:09:54;;;;;;;17.60;15.73;;;;;;;14.58;37.26;102326.97;5087219;28;20433;-74
2021/03/03 09:12:27;;;;;;;18.97;17.07;;;;;;;15.18;36.36;102315.78;5087625;28;20420;-74
2021/03/03 09:14:57;;;;;;;18.30;16.50;;;;;;;15.36;36.13;102321.34;5082861;28;20427;-72
2021/03/03 09:17:27;;;;;;;18.97;17.27;;;;;;;14.17;38.42;102320.94;5081433;28;20480;-73
2021/03/03 09:19:54;;;;;;;18.80;17.10;;;;;;;16.08;34.56;102308.31;5081120;28;20429;-73
2021/03/03 09:22:22;;;;;;;21.40;18.40;;;;;;;16.87;33.59;102302.94;5080687;28;20494;-72
2021/03/03 09:24:52;;;;;;;19.83;17.83;;;;;;;16.18;34.47;102306.66;5082526;28;20407;-73
2021/03/03 09:27:19;;;;;;;19.70;17.70;;;;;;;16.04;35.19;102297.72;5083438;28;20432;-73
2021/03/03 09:29:45;;;;;;;20.57;18.40;;;;;;;15.35;36.12;102295.91;5084849;28;20414;-74
2021/03/03 09:32:22;;;;;;;20.83;18.77;;;;;;;15.97;35.42;102291.50;5084418;28;20466;-73
2021/03/03 09:34:53;;;;;;;23.13;18.53;;;;;;;15.71;35.48;102297.28;5085899;28;20444;-73
2021/03/03 09:37:19;;;;;;;26.70;20.20;;;;;;;15.88;35.55;102286.13;5082852;28;20654;-73
2021/03/03 09:39:56;;;;;;;21.60;19.30;;;;;;;15.59;35.78;102289.25;5080286;28;20785;-73
2021/03/03 09:42:21;;;;;;;21.20;18.83;;;;;;;16.58;34.41;102282.53;5080516;28;20707;-73
2021/03/03 09:44:55;;;;;;;21.30;19.10;;;;;;;16.53;33.94;102277.19;5080412;28;20423;-72
2021/03/03 09:47:33;;;;;;;21.23;19.10;;;;;;;16.90;34.16;102284.56;5080204;28;20181;-72
2021/03/03 09:50:00;;;;;;;22.33;19.97;;;;;;;17.73;32.46;102266.63;5080537;28;20459;-71
2021/03/03 09:52:35;;;;;;;21.43;18.73;;;;;;;16.78;34.04;102274.81;5080098;28;20417;-74
2021/03/03 09:55:01;;;;;;;21.83;19.57;;;;;;;15.81;35.55;102269.41;5080587;28;20808;-74
2021/03/03 09:57:26;;;;;;;22.40;19.17;;;;;;;17.11;33.92;102271.56;5080150;28;20422;-72
2021/03/03 09:59:54;;;;;;;21.70;18.70;;;;;;;16.95;33.85;102272.31;5080131;28;20201;-73
2021/03/03 10:02:22;;;;;;;20.77;18.67;;;;;;;17.78;32.47;102261.38;5079524;28;20179;-72
2021/03/03 10:04:48;;;;;;;23.50;18.10;;;;;;;16.61;34.06;102264.09;5079070;28;20418;-74
2021/03/03 10:07:22;;;;;;;21.50;18.63;;;;;;;17.81;32.70;102264.91;5079175;28;20419;-72
2021/03/03 10:09:51;;;;;;;21.53;18.70;;;;;;;17.61;32.56;102261.31;5079753;28;20165;-73
2021/03/03 10:12:18;;;;;;;20.70;18.50;;;;;;;18.76;30.99;102258.06;5078991;28;20686;-71
2021/03/03 10:14:57;;;;;;;38.93;27.97;;;;;;;18.51;31.18;102258.09;5080022;28;20454;-72
2021/03/03 10:17:33;;;;;;;29.13;24.80;;;;;;;18.67;31.40;102264.25;5079955;28;20446;-73
2021/03/03 10:19:59;;;;;;;23.20;20.70;;;;;;;18.10;32.14;102265.91;5079546;28;20419;-73
2021/03/03 10:22:25;;;;;;;22.83;19.27;;;;;;;18.45;32.40;102265.13;5079164;28;20426;-74
2021/03/03 10:25:04;;;;;;;20.80;18.10;;;;;;;19.40;30.14;102258.88;5079411;28;20499;-73
2021/03/03 10:27:41;;;;;;;21.87;19.43;;;;;;;18.51;32.21;102257.22;5079530;28;20222;-73
2021/03/03 10:30:20;;;;;;;22.10;19.90;;;;;;;17.73;32.77;102268.41;5079590;28;20792;-73
2021/03/03 10:32:45;;;;;;;23.17;20.67;;;;;;;18.37;31.61;102261.59;5079285;28;20714;-72
2021/03/03 10:35:10;;;;;;;20.43;18.43;;;;;;;17.17;33.82;102254.94;5079481;28;20422;-71
2021/03/03 10:37:36;;;;;;;23.10;20.80;;;;;;;17.71;33.02;102256.97;5078473;28;20543;-72
2021/03/03 10:40:10;;;;;;;25.27;20.53;;;;;;;17.82;33.11;102252.63;5079519;28;20211;-72
2021/03/03 10:42:35;;;;;;;23.77;19.73;;;;;;;17.72;33.27;102250.81;5078854;28;20183;-71
2021/03/03 10:45:01;;;;;;;25.83;20.80;;;;;;;18.20;32.49;102246.59;5079048;28;20411;-71
2021/03/03 10:47:42;;;;;;;28.23;20.40;;;;;;;17.56;33.66;102247.22;5078853;28;20269;-72
2021/03/03 10:50:09;;;;;;;27.67;21.00;;;;;;;18.45;32.49;102242.22;5079307;28;20169;-72
2021/03/03 10:52:34;;;;;;;24.27;21.23;;;;;;;17.65;33.76;102242.00;5078684;28;20439;-71
2021/03/03 10:55:00;;;;;;;23.30;20.47;;;;;;;17.68;33.45;102242.00;5078699;28;20417;-71
2021/03/03 10:57:26;;;;;;;27.33;20.07;;;;;;;18.33;32.52;102229.91;5078907;28;20192;-72
2021/03/03 11:00:01;;;;;;;26.10;20.60;;;;;;;18.18;32.59;102232.50;5079056;28;20218;-72
2021/03/03 11:02:27;;;;;;;21.13;19.00;;;;;;;18.34;32.65;102230.78;5078687;28;20445;-73
2021/03/03 11:04:52;;;;;;;22.20;19.57;;;;;;;18.32;32.60;102230.78;5078676;28;20415;-73
2021/03/03 11:07:17;;;;;;;24.53;20.03;;;;;;;19.51;31.20;102228.00;5078653;28;20226;-73
2021/03/03 11:09:51;;;;;;;21.43;19.17;;;;;;;19.16;32.19;102222.84;5078333;28;20169;-72
2021/03/03 11:12:24;;;;;;;29.77;18.00;;;;;;;19.81;31.22;102212.06;5078301;28;20444;-72
2021/03/03 11:14:49;;;;;;;24.50;19.17;;;;;;;19.12;32.02;102213.13;5077593;28;20489;-72